Preview of NWS' New Version of Forecast
This preview is not operational and should not be used for support decisions.

Terminal Aerodrome Forecast (TAF)

Issued by National Weather Service (NWS)

                            
018 
FTUS42 KMFL 201735
TAFMIA
TAF
KMIA 201735Z 2018/2124 10015G24KT P6SM VCSH SCT025 BKN050
      TEMPO 2018/2021 6SM -SHRA SCT015 BKN025
     FM210000 10011KT P6SM FEW025 SCT050
     FM211400 11015G24KT P6SM SCT025 BKN050=